sensor_id;sensor_type;location;lat;lon;timestamp;P1;durP1;ratioP1;P2;durP2;ratioP2
49730;SDS011;35622;52.008;5.426;2022-09-12T00:01:24;34.83;;;25.77;;
49730;SDS011;35622;52.008;5.426;2022-09-12T00:03:51;33.50;;;25.55;;
49730;SDS011;35622;52.008;5.426;2022-09-12T00:06:19;31.05;;;24.02;;
49730;SDS011;35622;52.008;5.426;2022-09-12T00:08:46;34.17;;;25.38;;
49730;SDS011;35622;52.008;5.426;2022-09-12T00:11:12;37.67;;;25.10;;
49730;SDS011;35622;52.008;5.426;2022-09-12T00:13:38;30.55;;;24.15;;
49730;SDS011;35622;52.008;5.426;2022-09-12T00:16:05;35.75;;;25.65;;
49730;SDS011;35622;52.008;5.426;2022-09-12T00:18:31;29.42;;;23.50;;
49730;SDS011;35622;52.008;5.426;2022-09-12T00:21:00;32.45;;;25.80;;
49730;SDS011;35622;52.008;5.426;2022-09-12T00:23:28;35.35;;;26.00;;
49730;SDS011;35622;52.008;5.426;2022-09-12T00:25:55;37.10;;;26.02;;
49730;SDS011;35622;52.008;5.426;2022-09-12T00:28:20;34.53;;;25.55;;
49730;SDS011;35622;52.008;5.426;2022-09-12T00:30:46;32.88;;;24.45;;
49730;SDS011;35622;52.008;5.426;2022-09-12T00:33:13;37.58;;;27.98;;
49730;SDS011;35622;52.008;5.426;2022-09-12T00:35:44;36.63;;;25.67;;
49730;SDS011;35622;52.008;5.426;2022-09-12T00:38:12;37.28;;;26.75;;
49730;SDS011;35622;52.008;5.426;2022-09-12T00:40:38;36.58;;;25.48;;
49730;SDS011;35622;52.008;5.426;2022-09-12T00:43:04;35.88;;;26.48;;
49730;SDS011;35622;52.008;5.426;2022-09-12T00:45:34;38.22;;;27.27;;
49730;SDS011;35622;52.008;5.426;2022-09-12T00:48:00;41.70;;;27.80;;
49730;SDS011;35622;52.008;5.426;2022-09-12T00:50:28;43.65;;;28.50;;
49730;SDS011;35622;52.008;5.426;2022-09-12T00:53:05;35.13;;;25.50;;
49730;SDS011;35622;52.008;5.426;2022-09-12T00:55:34;36.40;;;26.17;;
49730;SDS011;35622;52.008;5.426;2022-09-12T00:58:09;34.10;;;26.10;;
49730;SDS011;35622;52.008;5.426;2022-09-12T01:00:38;31.92;;;24.33;;
49730;SDS011;35622;52.008;5.426;2022-09-12T01:03:06;33.95;;;25.63;;
49730;SDS011;35622;52.008;5.426;2022-09-12T01:05:35;36.38;;;26.80;;
49730;SDS011;35622;52.008;5.426;2022-09-12T01:08:03;36.42;;;25.55;;
49730;SDS011;35622;52.008;5.426;2022-09-12T01:10:29;35.10;;;25.35;;
49730;SDS011;35622;52.008;5.426;2022-09-12T01:12:57;34.50;;;24.52;;
49730;SDS011;35622;52.008;5.426;2022-09-12T01:15:23;32.70;;;23.75;;
49730;SDS011;35622;52.008;5.426;2022-09-12T01:29:54;38.75;;;25.75;;
49730;SDS011;35622;52.008;5.426;2022-09-12T01:32:51;36.03;;;26.70;;
49730;SDS011;35622;52.008;5.426;2022-09-12T01:35:23;35.15;;;25.55;;
49730;SDS011;35622;52.008;5.426;2022-09-12T01:43:33;35.97;;;25.67;;
49730;SDS011;35622;52.008;5.426;2022-09-12T01:48:35;35.42;;;25.63;;
49730;SDS011;35622;52.008;5.426;2022-09-12T01:51:15;33.83;;;24.33;;
49730;SDS011;35622;52.008;5.426;2022-09-12T01:53:48;41.55;;;26.30;;
49730;SDS011;35622;52.008;5.426;2022-09-12T01:56:21;34.22;;;26.17;;
49730;SDS011;35622;52.008;5.426;2022-09-12T02:01:29;31.77;;;23.08;;
49730;SDS011;35622;52.008;5.426;2022-09-12T02:04:12;33.10;;;25.05;;
49730;SDS011;35622;52.008;5.426;2022-09-12T02:06:48;34.45;;;25.60;;
49730;SDS011;35622;52.008;5.426;2022-09-12T02:09:17;35.92;;;26.05;;
49730;SDS011;35622;52.008;5.426;2022-09-12T02:11:55;33.25;;;24.50;;
49730;SDS011;35622;52.008;5.426;2022-09-12T02:14:24;35.38;;;25.75;;
49730;SDS011;35622;52.008;5.426;2022-09-12T02:16:58;32.58;;;24.50;;
49730;SDS011;35622;52.008;5.426;2022-09-12T02:19:29;32.90;;;24.27;;
49730;SDS011;35622;52.008;5.426;2022-09-12T02:22:01;31.73;;;23.98;;
49730;SDS011;35622;52.008;5.426;2022-09-12T02:24:29;33.78;;;24.70;;
49730;SDS011;35622;52.008;5.426;2022-09-12T02:27:05;32.75;;;24.05;;
49730;SDS011;35622;52.008;5.426;2022-09-12T02:29:39;32.72;;;24.20;;
49730;SDS011;35622;52.008;5.426;2022-09-12T02:32:06;36.53;;;26.27;;
49730;SDS011;35622;52.008;5.426;2022-09-12T02:40:35;33.15;;;24.63;;
49730;SDS011;35622;52.008;5.426;2022-09-12T02:43:02;33.75;;;24.25;;
49730;SDS011;35622;52.008;5.426;2022-09-12T02:45:29;36.47;;;24.05;;
49730;SDS011;35622;52.008;5.426;2022-09-12T02:48:05;32.50;;;23.25;;
49730;SDS011;35622;52.008;5.426;2022-09-12T02:50:35;31.48;;;23.73;;
49730;SDS011;35622;52.008;5.426;2022-09-12T02:53:02;32.08;;;23.27;;
49730;SDS011;35622;52.008;5.426;2022-09-12T02:55:32;32.60;;;24.67;;
49730;SDS011;35622;52.008;5.426;2022-09-12T02:58:03;28.23;;;21.75;;
49730;SDS011;35622;52.008;5.426;2022-09-12T03:00:41;34.03;;;24.00;;
49730;SDS011;35622;52.008;5.426;2022-09-12T03:08:36;35.28;;;23.50;;
49730;SDS011;35622;52.008;5.426;2022-09-12T03:13:51;33.15;;;24.02;;
49730;SDS011;35622;52.008;5.426;2022-09-12T03:16:37;35.03;;;25.10;;
49730;SDS011;35622;52.008;5.426;2022-09-12T03:19:11;35.30;;;25.17;;
49730;SDS011;35622;52.008;5.426;2022-09-12T03:24:48;47.67;;;29.55;;
49730;SDS011;35622;52.008;5.426;2022-09-12T03:29:57;48.45;;;31.98;;
49730;SDS011;35622;52.008;5.426;2022-09-12T03:32:46;43.90;;;29.63;;
49730;SDS011;35622;52.008;5.426;2022-09-12T03:35:11;43.55;;;28.98;;
49730;SDS011;35622;52.008;5.426;2022-09-12T03:37:37;38.22;;;27.00;;
49730;SDS011;35622;52.008;5.426;2022-09-12T03:40:03;37.60;;;26.73;;
49730;SDS011;35622;52.008;5.426;2022-09-12T03:42:30;38.47;;;27.25;;
49730;SDS011;35622;52.008;5.426;2022-09-12T03:44:55;41.20;;;26.80;;
49730;SDS011;35622;52.008;5.426;2022-09-12T03:47:21;34.85;;;25.30;;
49730;SDS011;35622;52.008;5.426;2022-09-12T03:49:47;35.45;;;25.38;;
49730;SDS011;35622;52.008;5.426;2022-09-12T03:52:12;34.30;;;25.30;;
49730;SDS011;35622;52.008;5.426;2022-09-12T03:54:38;34.85;;;25.30;;
49730;SDS011;35622;52.008;5.426;2022-09-12T03:57:04;33.05;;;24.50;;
49730;SDS011;35622;52.008;5.426;2022-09-12T03:59:30;36.15;;;24.70;;
49730;SDS011;35622;52.008;5.426;2022-09-12T04:01:56;35.33;;;25.75;;
49730;SDS011;35622;52.008;5.426;2022-09-12T04:04:21;29.83;;;22.27;;
49730;SDS011;35622;52.008;5.426;2022-09-12T04:06:47;32.47;;;24.17;;
49730;SDS011;35622;52.008;5.426;2022-09-12T04:09:13;35.85;;;23.10;;
49730;SDS011;35622;52.008;5.426;2022-09-12T04:11:39;34.58;;;24.63;;
49730;SDS011;35622;52.008;5.426;2022-09-12T04:14:04;35.38;;;24.98;;
49730;SDS011;35622;52.008;5.426;2022-09-12T04:16:30;35.03;;;24.63;;
49730;SDS011;35622;52.008;5.426;2022-09-12T04:18:56;33.50;;;23.38;;
49730;SDS011;35622;52.008;5.426;2022-09-12T04:21:21;36.92;;;26.20;;
49730;SDS011;35622;52.008;5.426;2022-09-12T04:23:47;38.58;;;25.25;;
49730;SDS011;35622;52.008;5.426;2022-09-12T04:26:13;42.63;;;29.02;;
49730;SDS011;35622;52.008;5.426;2022-09-12T04:28:39;46.83;;;30.45;;
49730;SDS011;35622;52.008;5.426;2022-09-12T04:31:10;43.97;;;29.45;;
49730;SDS011;35622;52.008;5.426;2022-09-12T04:33:41;47.17;;;30.77;;
49730;SDS011;35622;52.008;5.426;2022-09-12T04:36:09;40.85;;;27.17;;
49730;SDS011;35622;52.008;5.426;2022-09-12T04:38:38;38.45;;;26.67;;
49730;SDS011;35622;52.008;5.426;2022-09-12T04:43:53;40.75;;;28.48;;
49730;SDS011;35622;52.008;5.426;2022-09-12T04:46:25;44.35;;;28.25;;
49730;SDS011;35622;52.008;5.426;2022-09-12T04:48:52;39.80;;;26.00;;
49730;SDS011;35622;52.008;5.426;2022-09-12T04:51:18;38.47;;;26.13;;
49730;SDS011;35622;52.008;5.426;2022-09-12T04:53:49;42.60;;;27.13;;
49730;SDS011;35622;52.008;5.426;2022-09-12T04:56:16;36.10;;;26.23;;
49730;SDS011;35622;52.008;5.426;2022-09-12T04:58:43;39.38;;;26.02;;
49730;SDS011;35622;52.008;5.426;2022-09-12T05:01:13;32.58;;;23.75;;
49730;SDS011;35622;52.008;5.426;2022-09-12T05:03:41;36.08;;;24.85;;
49730;SDS011;35622;52.008;5.426;2022-09-12T05:06:08;33.78;;;24.55;;
49730;SDS011;35622;52.008;5.426;2022-09-12T05:08:35;38.05;;;26.77;;
49730;SDS011;35622;52.008;5.426;2022-09-12T05:11:01;31.95;;;24.08;;
49730;SDS011;35622;52.008;5.426;2022-09-12T05:13:29;37.50;;;25.17;;
49730;SDS011;35622;52.008;5.426;2022-09-12T05:15:56;37.13;;;26.05;;
49730;SDS011;35622;52.008;5.426;2022-09-12T05:18:22;32.78;;;24.75;;
49730;SDS011;35622;52.008;5.426;2022-09-12T05:20:48;33.28;;;25.08;;
49730;SDS011;35622;52.008;5.426;2022-09-12T05:23:14;38.40;;;24.83;;
49730;SDS011;35622;52.008;5.426;2022-09-12T05:25:46;41.58;;;28.73;;
49730;SDS011;35622;52.008;5.426;2022-09-12T05:28:16;37.13;;;25.45;;
49730;SDS011;35622;52.008;5.426;2022-09-12T05:30:42;35.92;;;24.98;;
49730;SDS011;35622;52.008;5.426;2022-09-12T05:33:08;38.08;;;27.95;;
49730;SDS011;35622;52.008;5.426;2022-09-12T05:35:33;38.53;;;27.13;;
49730;SDS011;35622;52.008;5.426;2022-09-12T05:37:59;44.08;;;27.65;;
49730;SDS011;35622;52.008;5.426;2022-09-12T05:40:24;43.90;;;28.65;;
49730;SDS011;35622;52.008;5.426;2022-09-12T05:42:50;39.92;;;28.88;;
49730;SDS011;35622;52.008;5.426;2022-09-12T05:45:15;41.83;;;29.38;;
49730;SDS011;35622;52.008;5.426;2022-09-12T05:47:41;41.33;;;28.90;;
49730;SDS011;35622;52.008;5.426;2022-09-12T05:50:07;40.38;;;28.25;;
49730;SDS011;35622;52.008;5.426;2022-09-12T05:52:35;43.75;;;29.60;;
49730;SDS011;35622;52.008;5.426;2022-09-12T05:55:01;41.80;;;28.50;;
49730;SDS011;35622;52.008;5.426;2022-09-12T05:57:27;44.22;;;29.05;;
49730;SDS011;35622;52.008;5.426;2022-09-12T05:59:53;44.42;;;31.67;;
49730;SDS011;35622;52.008;5.426;2022-09-12T06:02:19;44.47;;;29.13;;
49730;SDS011;35622;52.008;5.426;2022-09-12T06:04:44;37.55;;;27.15;;
49730;SDS011;35622;52.008;5.426;2022-09-12T06:07:10;41.58;;;29.13;;
49730;SDS011;35622;52.008;5.426;2022-09-12T06:09:36;40.58;;;28.65;;
49730;SDS011;35622;52.008;5.426;2022-09-12T06:12:01;43.97;;;29.33;;
49730;SDS011;35622;52.008;5.426;2022-09-12T06:14:27;40.60;;;27.48;;
49730;SDS011;35622;52.008;5.426;2022-09-12T06:16:53;39.75;;;27.55;;
49730;SDS011;35622;52.008;5.426;2022-09-12T06:19:19;40.42;;;28.48;;
49730;SDS011;35622;52.008;5.426;2022-09-12T06:22:02;40.80;;;28.08;;
49730;SDS011;35622;52.008;5.426;2022-09-12T06:27:08;40.42;;;29.50;;
49730;SDS011;35622;52.008;5.426;2022-09-12T06:29:34;38.88;;;28.25;;
49730;SDS011;35622;52.008;5.426;2022-09-12T06:31:59;36.45;;;27.40;;
49730;SDS011;35622;52.008;5.426;2022-09-12T06:34:39;40.58;;;29.25;;
49730;SDS011;35622;52.008;5.426;2022-09-12T06:37:04;37.78;;;28.15;;
49730;SDS011;35622;52.008;5.426;2022-09-12T06:42:21;38.35;;;28.50;;
49730;SDS011;35622;52.008;5.426;2022-09-12T06:53:21;24.70;;;19.88;;
49730;SDS011;35622;52.008;5.426;2022-09-12T06:55:53;25.90;;;21.92;;
49730;SDS011;35622;52.008;5.426;2022-09-12T06:58:57;22.88;;;18.67;;
49730;SDS011;35622;52.008;5.426;2022-09-12T07:01:24;22.25;;;19.85;;
49730;SDS011;35622;52.008;5.426;2022-09-12T07:03:59;26.38;;;22.10;;
49730;SDS011;35622;52.008;5.426;2022-09-12T07:09:31;28.60;;;24.63;;
49730;SDS011;35622;52.008;5.426;2022-09-12T07:12:12;25.20;;;22.60;;
49730;SDS011;35622;52.008;5.426;2022-09-12T07:14:38;32.88;;;28.30;;
49730;SDS011;35622;52.008;5.426;2022-09-12T07:17:13;33.30;;;28.13;;
49730;SDS011;35622;52.008;5.426;2022-09-12T07:19:39;34.60;;;29.58;;
49730;SDS011;35622;52.008;5.426;2022-09-12T07:22:05;32.03;;;26.88;;
49730;SDS011;35622;52.008;5.426;2022-09-12T07:24:30;30.48;;;26.77;;
49730;SDS011;35622;52.008;5.426;2022-09-12T07:26:56;33.17;;;28.83;;
49730;SDS011;35622;52.008;5.426;2022-09-12T07:29:22;31.98;;;27.95;;
49730;SDS011;35622;52.008;5.426;2022-09-12T07:31:51;31.30;;;27.90;;
49730;SDS011;35622;52.008;5.426;2022-09-12T07:34:17;29.92;;;26.60;;
49730;SDS011;35622;52.008;5.426;2022-09-12T07:36:42;32.90;;;27.40;;
49730;SDS011;35622;52.008;5.426;2022-09-12T07:39:08;32.30;;;28.85;;
49730;SDS011;35622;52.008;5.426;2022-09-12T07:41:34;30.15;;;26.38;;
49730;SDS011;35622;52.008;5.426;2022-09-12T07:44:00;32.45;;;28.38;;
49730;SDS011;35622;52.008;5.426;2022-09-12T07:46:27;30.65;;;27.45;;
49730;SDS011;35622;52.008;5.426;2022-09-12T07:48:55;31.58;;;28.17;;
49730;SDS011;35622;52.008;5.426;2022-09-12T07:51:21;30.45;;;27.30;;
49730;SDS011;35622;52.008;5.426;2022-09-12T07:53:48;30.15;;;26.95;;
49730;SDS011;35622;52.008;5.426;2022-09-12T07:56:14;31.38;;;27.98;;
49730;SDS011;35622;52.008;5.426;2022-09-12T07:58:41;30.48;;;27.17;;
49730;SDS011;35622;52.008;5.426;2022-09-12T08:01:08;28.83;;;25.83;;
49730;SDS011;35622;52.008;5.426;2022-09-12T08:03:43;28.20;;;25.30;;
49730;SDS011;35622;52.008;5.426;2022-09-12T08:06:11;29.15;;;26.05;;
49730;SDS011;35622;52.008;5.426;2022-09-12T08:08:41;29.55;;;26.48;;
49730;SDS011;35622;52.008;5.426;2022-09-12T08:11:08;29.23;;;26.13;;
49730;SDS011;35622;52.008;5.426;2022-09-12T08:13:44;29.67;;;26.65;;
49730;SDS011;35622;52.008;5.426;2022-09-12T08:19:32;30.33;;;27.17;;
49730;SDS011;35622;52.008;5.426;2022-09-12T08:25:20;27.80;;;25.00;;
49730;SDS011;35622;52.008;5.426;2022-09-12T08:31:09;28.27;;;25.65;;
49730;SDS011;35622;52.008;5.426;2022-09-12T08:36:57;26.30;;;23.75;;
49730;SDS011;35622;52.008;5.426;2022-09-12T08:39:23;26.65;;;24.13;;
49730;SDS011;35622;52.008;5.426;2022-09-12T08:42:23;26.08;;;23.52;;
49730;SDS011;35622;52.008;5.426;2022-09-12T08:45:12;25.83;;;23.50;;
49730;SDS011;35622;52.008;5.426;2022-09-12T08:48:10;25.30;;;22.88;;
49730;SDS011;35622;52.008;5.426;2022-09-12T08:50:37;25.25;;;22.75;;
49730;SDS011;35622;52.008;5.426;2022-09-12T08:53:12;24.92;;;22.58;;
49730;SDS011;35622;52.008;5.426;2022-09-12T08:55:42;24.13;;;21.83;;
49730;SDS011;35622;52.008;5.426;2022-09-12T08:58:23;23.58;;;21.35;;
49730;SDS011;35622;52.008;5.426;2022-09-12T09:01:06;25.10;;;22.90;;
49730;SDS011;35622;52.008;5.426;2022-09-12T09:12:23;25.42;;;23.15;;
49730;SDS011;35622;52.008;5.426;2022-09-12T09:15:17;24.98;;;22.67;;
49730;SDS011;35622;52.008;5.426;2022-09-12T09:17:57;24.80;;;22.40;;
49730;SDS011;35622;52.008;5.426;2022-09-12T09:23:47;21.95;;;19.92;;
49730;SDS011;35622;52.008;5.426;2022-09-12T09:26:24;23.58;;;21.48;;
49730;SDS011;35622;52.008;5.426;2022-09-12T09:29:05;22.00;;;19.92;;
49730;SDS011;35622;52.008;5.426;2022-09-12T09:32:15;23.98;;;21.73;;
49730;SDS011;35622;52.008;5.426;2022-09-12T09:37:42;22.92;;;20.58;;
49730;SDS011;35622;52.008;5.426;2022-09-12T09:40:52;24.25;;;21.60;;
49730;SDS011;35622;52.008;5.426;2022-09-12T09:47:20;19.73;;;17.83;;
49730;SDS011;35622;52.008;5.426;2022-09-12T09:53:09;20.25;;;18.42;;
49730;SDS011;35622;52.008;5.426;2022-09-12T09:59:37;19.00;;;17.30;;
49730;SDS011;35622;52.008;5.426;2022-09-12T10:05:25;18.23;;;16.73;;
49730;SDS011;35622;52.008;5.426;2022-09-12T10:21:07;15.07;;;13.73;;
49730;SDS011;35622;52.008;5.426;2022-09-12T10:27:36;14.10;;;12.88;;
49730;SDS011;35622;52.008;5.426;2022-09-12T10:33:24;12.45;;;11.25;;
49730;SDS011;35622;52.008;5.426;2022-09-12T10:39:16;10.88;;;10.00;;
49730;SDS011;35622;52.008;5.426;2022-09-12T10:45:15;11.48;;;10.38;;
49730;SDS011;35622;52.008;5.426;2022-09-12T10:51:40;8.50;;;7.80;;
49730;SDS011;35622;52.008;5.426;2022-09-12T10:57:34;9.07;;;8.18;;
49730;SDS011;35622;52.008;5.426;2022-09-12T11:30:46;5.60;;;5.10;;
49730;SDS011;35622;52.008;5.426;2022-09-12T11:35:56;6.82;;;6.15;;
49730;SDS011;35622;52.008;5.426;2022-09-12T11:45:03;5.05;;;4.47;;
49730;SDS011;35622;52.008;5.426;2022-09-12T11:47:54;4.72;;;3.67;;
49730;SDS011;35622;52.008;5.426;2022-09-12T11:50:43;4.85;;;4.00;;
49730;SDS011;35622;52.008;5.426;2022-09-12T11:53:20;5.20;;;4.70;;
49730;SDS011;35622;52.008;5.426;2022-09-12T11:56:11;6.70;;;4.82;;
49730;SDS011;35622;52.008;5.426;2022-09-12T12:11:02;5.22;;;3.90;;
49730;SDS011;35622;52.008;5.426;2022-09-12T12:29:53;4.95;;;3.90;;
49730;SDS011;35622;52.008;5.426;2022-09-12T12:32:19;4.85;;;4.43;;
49730;SDS011;35622;52.008;5.426;2022-09-12T12:34:46;5.10;;;4.57;;
49730;SDS011;35622;52.008;5.426;2022-09-12T12:43:13;5.50;;;5.00;;
49730;SDS011;35622;52.008;5.426;2022-09-12T12:49:33;6.05;;;4.85;;
49730;SDS011;35622;52.008;5.426;2022-09-12T12:55:27;6.30;;;5.10;;
49730;SDS011;35622;52.008;5.426;2022-09-12T13:01:17;4.97;;;4.00;;
49730;SDS011;35622;52.008;5.426;2022-09-12T13:03:55;5.38;;;3.55;;
49730;SDS011;35622;52.008;5.426;2022-09-12T13:06:36;6.35;;;3.92;;
49730;SDS011;35622;52.008;5.426;2022-09-12T13:12:35;9.32;;;5.72;;
49730;SDS011;35622;52.008;5.426;2022-09-12T13:23:25;4.97;;;4.47;;
49730;SDS011;35622;52.008;5.426;2022-09-12T13:30:06;4.97;;;4.53;;
49730;SDS011;35622;52.008;5.426;2022-09-12T13:32:44;7.50;;;6.80;;
49730;SDS011;35622;52.008;5.426;2022-09-12T13:35:15;6.75;;;5.78;;
49730;SDS011;35622;52.008;5.426;2022-09-12T13:41:47;6.75;;;6.05;;
49730;SDS011;35622;52.008;5.426;2022-09-12T13:48:21;5.03;;;4.53;;
49730;SDS011;35622;52.008;5.426;2022-09-12T13:50:53;6.90;;;5.35;;
49730;SDS011;35622;52.008;5.426;2022-09-12T13:53:24;7.25;;;4.70;;
49730;SDS011;35622;52.008;5.426;2022-09-12T13:55:59;7.00;;;4.00;;
49730;SDS011;35622;52.008;5.426;2022-09-12T14:01:47;4.53;;;4.13;;
49730;SDS011;35622;52.008;5.426;2022-09-12T14:06:57;5.38;;;3.83;;
49730;SDS011;35622;52.008;5.426;2022-09-12T14:09:29;4.88;;;4.47;;
49730;SDS011;35622;52.008;5.426;2022-09-12T14:11:59;3.85;;;3.55;;
49730;SDS011;35622;52.008;5.426;2022-09-12T14:16:56;4.47;;;3.58;;
49730;SDS011;35622;52.008;5.426;2022-09-12T14:19:22;4.72;;;4.22;;
49730;SDS011;35622;52.008;5.426;2022-09-12T14:21:50;4.20;;;3.78;;
49730;SDS011;35622;52.008;5.426;2022-09-12T14:24:17;4.28;;;3.88;;
49730;SDS011;35622;52.008;5.426;2022-09-12T14:26:47;8.02;;;3.47;;
49730;SDS011;35622;52.008;5.426;2022-09-12T14:29:16;5.32;;;3.70;;
49730;SDS011;35622;52.008;5.426;2022-09-12T14:31:42;3.70;;;3.40;;
49730;SDS011;35622;52.008;5.426;2022-09-12T14:34:12;4.75;;;3.50;;
49730;SDS011;35622;52.008;5.426;2022-09-12T14:36:40;4.13;;;3.20;;
49730;SDS011;35622;52.008;5.426;2022-09-12T14:39:23;4.95;;;3.85;;
49730;SDS011;35622;52.008;5.426;2022-09-12T14:42:10;4.85;;;3.72;;
49730;SDS011;35622;52.008;5.426;2022-09-12T14:45:24;7.72;;;4.15;;
49730;SDS011;35622;52.008;5.426;2022-09-12T14:47:55;4.00;;;3.38;;
49730;SDS011;35622;52.008;5.426;2022-09-12T14:50:23;4.82;;;4.20;;
49730;SDS011;35622;52.008;5.426;2022-09-12T14:55:29;4.05;;;3.63;;
49730;SDS011;35622;52.008;5.426;2022-09-12T15:06:54;3.92;;;2.97;;
49730;SDS011;35622;52.008;5.426;2022-09-12T15:12:41;6.82;;;3.10;;
49730;SDS011;35622;52.008;5.426;2022-09-12T15:21:54;5.50;;;3.00;;
49730;SDS011;35622;52.008;5.426;2022-09-12T15:27:42;5.13;;;3.20;;
49730;SDS011;35622;52.008;5.426;2022-09-12T15:33:31;5.43;;;3.00;;
49730;SDS011;35622;52.008;5.426;2022-09-12T15:35:57;2.67;;;2.40;;
49730;SDS011;35622;52.008;5.426;2022-09-12T15:38:22;3.42;;;2.72;;
49730;SDS011;35622;52.008;5.426;2022-09-12T15:40:49;4.00;;;2.63;;
49730;SDS011;35622;52.008;5.426;2022-09-12T15:43:17;3.03;;;2.58;;
49730;SDS011;35622;52.008;5.426;2022-09-12T15:45:43;4.10;;;2.85;;
49730;SDS011;35622;52.008;5.426;2022-09-12T15:48:11;3.00;;;2.40;;
49730;SDS011;35622;52.008;5.426;2022-09-12T15:50:37;5.63;;;2.50;;
49730;SDS011;35622;52.008;5.426;2022-09-12T15:53:04;3.28;;;2.72;;
49730;SDS011;35622;52.008;5.426;2022-09-12T15:55:30;3.50;;;2.53;;
49730;SDS011;35622;52.008;5.426;2022-09-12T15:57:57;3.90;;;2.35;;
49730;SDS011;35622;52.008;5.426;2022-09-12T16:00:24;3.25;;;2.40;;
49730;SDS011;35622;52.008;5.426;2022-09-12T16:06:12;4.57;;;2.60;;
49730;SDS011;35622;52.008;5.426;2022-09-12T16:12:04;3.00;;;2.40;;
49730;SDS011;35622;52.008;5.426;2022-09-12T16:17:27;3.45;;;2.53;;
49730;SDS011;35622;52.008;5.426;2022-09-12T16:19:52;3.55;;;2.78;;
49730;SDS011;35622;52.008;5.426;2022-09-12T16:22:18;3.15;;;2.50;;
49730;SDS011;35622;52.008;5.426;2022-09-12T16:24:44;3.20;;;2.50;;
49730;SDS011;35622;52.008;5.426;2022-09-12T16:27:09;2.88;;;2.40;;
49730;SDS011;35622;52.008;5.426;2022-09-12T16:29:36;3.05;;;2.42;;
49730;SDS011;35622;52.008;5.426;2022-09-12T16:32:01;3.50;;;2.63;;
49730;SDS011;35622;52.008;5.426;2022-09-12T16:34:27;3.45;;;2.42;;
49730;SDS011;35622;52.008;5.426;2022-09-12T16:36:53;3.00;;;2.70;;
49730;SDS011;35622;52.008;5.426;2022-09-12T16:42:41;4.93;;;2.67;;
49730;SDS011;35622;52.008;5.426;2022-09-12T16:48:28;2.78;;;2.58;;
49730;SDS011;35622;52.008;5.426;2022-09-12T16:54:16;4.50;;;2.78;;
49730;SDS011;35622;52.008;5.426;2022-09-12T16:59:59;3.10;;;2.90;;
49730;SDS011;35622;52.008;5.426;2022-09-12T17:02:25;3.95;;;2.92;;
49730;SDS011;35622;52.008;5.426;2022-09-12T17:08:13;4.45;;;3.05;;
49730;SDS011;35622;52.008;5.426;2022-09-12T17:16:48;2.90;;;2.70;;
49730;SDS011;35622;52.008;5.426;2022-09-12T17:19:16;4.72;;;3.00;;
49730;SDS011;35622;52.008;5.426;2022-09-12T17:21:53;3.28;;;2.97;;
49730;SDS011;35622;52.008;5.426;2022-09-12T17:24:26;5.43;;;3.30;;
49730;SDS011;35622;52.008;5.426;2022-09-12T17:26:52;3.17;;;2.80;;
49730;SDS011;35622;52.008;5.426;2022-09-12T17:32:05;5.72;;;3.33;;
49730;SDS011;35622;52.008;5.426;2022-09-12T17:34:31;5.03;;;3.30;;
49730;SDS011;35622;52.008;5.426;2022-09-12T17:36:57;4.75;;;3.60;;
49730;SDS011;35622;52.008;5.426;2022-09-12T17:39:22;5.47;;;3.42;;
49730;SDS011;35622;52.008;5.426;2022-09-12T17:41:48;4.57;;;3.50;;
49730;SDS011;35622;52.008;5.426;2022-09-12T17:47:02;3.97;;;3.25;;
49730;SDS011;35622;52.008;5.426;2022-09-12T17:52:50;6.05;;;3.65;;
49730;SDS011;35622;52.008;5.426;2022-09-12T17:55:24;6.15;;;3.63;;
49730;SDS011;35622;52.008;5.426;2022-09-12T17:57:50;4.90;;;3.45;;
49730;SDS011;35622;52.008;5.426;2022-09-12T18:00:16;7.25;;;3.67;;
49730;SDS011;35622;52.008;5.426;2022-09-12T18:02:42;4.22;;;3.70;;
49730;SDS011;35622;52.008;5.426;2022-09-12T18:05:09;5.30;;;3.55;;
49730;SDS011;35622;52.008;5.426;2022-09-12T18:07:34;6.18;;;3.92;;
49730;SDS011;35622;52.008;5.426;2022-09-12T18:10:00;5.32;;;3.97;;
49730;SDS011;35622;52.008;5.426;2022-09-12T18:12:26;5.18;;;4.68;;
49730;SDS011;35622;52.008;5.426;2022-09-12T18:14:52;4.63;;;3.90;;
49730;SDS011;35622;52.008;5.426;2022-09-12T18:17:17;4.72;;;3.92;;
49730;SDS011;35622;52.008;5.426;2022-09-12T18:23:05;5.38;;;4.63;;
49730;SDS011;35622;52.008;5.426;2022-09-12T18:32:11;6.88;;;3.90;;
49730;SDS011;35622;52.008;5.426;2022-09-12T18:34:37;4.63;;;3.85;;
49730;SDS011;35622;52.008;5.426;2022-09-12T18:37:02;7.47;;;4.20;;
49730;SDS011;35622;52.008;5.426;2022-09-12T18:39:29;6.72;;;4.05;;
49730;SDS011;35622;52.008;5.426;2022-09-12T18:41:54;6.15;;;4.20;;
49730;SDS011;35622;52.008;5.426;2022-09-12T18:47:41;5.75;;;4.20;;
49730;SDS011;35622;52.008;5.426;2022-09-12T18:53:28;6.38;;;4.72;;
49730;SDS011;35622;52.008;5.426;2022-09-12T18:55:58;8.57;;;5.10;;
49730;SDS011;35622;52.008;5.426;2022-09-12T18:59:02;7.15;;;5.28;;
49730;SDS011;35622;52.008;5.426;2022-09-12T19:01:33;5.00;;;4.32;;
49730;SDS011;35622;52.008;5.426;2022-09-12T19:04:00;6.43;;;4.43;;
49730;SDS011;35622;52.008;5.426;2022-09-12T19:06:29;5.65;;;4.75;;
49730;SDS011;35622;52.008;5.426;2022-09-12T19:11:53;5.45;;;4.57;;
49730;SDS011;35622;52.008;5.426;2022-09-12T19:14:19;7.03;;;4.50;;
49730;SDS011;35622;52.008;5.426;2022-09-12T19:16:46;6.97;;;4.90;;
49730;SDS011;35622;52.008;5.426;2022-09-12T19:29:59;5.75;;;5.10;;
49730;SDS011;35622;52.008;5.426;2022-09-12T19:32:24;7.28;;;5.35;;
49730;SDS011;35622;52.008;5.426;2022-09-12T19:37:38;9.30;;;5.47;;
49730;SDS011;35622;52.008;5.426;2022-09-12T19:40:03;7.00;;;5.50;;
49730;SDS011;35622;52.008;5.426;2022-09-12T19:42:31;6.28;;;5.32;;
49730;SDS011;35622;52.008;5.426;2022-09-12T19:48:19;6.07;;;5.03;;
49730;SDS011;35622;52.008;5.426;2022-09-12T19:54:07;9.05;;;5.10;;
49730;SDS011;35622;52.008;5.426;2022-09-12T19:59:55;5.95;;;5.03;;
49730;SDS011;35622;52.008;5.426;2022-09-12T20:02:20;8.60;;;5.50;;
49730;SDS011;35622;52.008;5.426;2022-09-12T20:04:46;6.72;;;5.40;;
49730;SDS011;35622;52.008;5.426;2022-09-12T20:10:33;8.52;;;5.25;;
49730;SDS011;35622;52.008;5.426;2022-09-12T20:13:02;6.80;;;5.15;;
49730;SDS011;35622;52.008;5.426;2022-09-12T20:15:28;6.53;;;5.25;;
49730;SDS011;35622;52.008;5.426;2022-09-12T20:17:55;7.05;;;5.40;;
49730;SDS011;35622;52.008;5.426;2022-09-12T20:20:21;7.47;;;5.60;;
49730;SDS011;35622;52.008;5.426;2022-09-12T20:22:50;6.68;;;5.65;;
49730;SDS011;35622;52.008;5.426;2022-09-12T20:25:29;7.43;;;5.25;;
49730;SDS011;35622;52.008;5.426;2022-09-12T20:27:55;6.40;;;5.35;;
49730;SDS011;35622;52.008;5.426;2022-09-12T20:33:24;8.60;;;5.57;;
49730;SDS011;35622;52.008;5.426;2022-09-12T20:35:50;7.05;;;5.72;;
49730;SDS011;35622;52.008;5.426;2022-09-12T20:38:16;5.47;;;4.80;;
49730;SDS011;35622;52.008;5.426;2022-09-12T20:40:46;8.80;;;5.45;;
49730;SDS011;35622;52.008;5.426;2022-09-12T20:43:12;6.57;;;5.00;;
49730;SDS011;35622;52.008;5.426;2022-09-12T20:45:41;7.47;;;5.15;;
49730;SDS011;35622;52.008;5.426;2022-09-12T20:48:20;6.65;;;5.57;;
49730;SDS011;35622;52.008;5.426;2022-09-12T20:50:45;6.97;;;5.60;;
49730;SDS011;35622;52.008;5.426;2022-09-12T20:53:11;6.00;;;5.40;;
49730;SDS011;35622;52.008;5.426;2022-09-12T20:58:59;6.35;;;5.45;;
49730;SDS011;35622;52.008;5.426;2022-09-12T21:01:26;7.60;;;5.32;;
49730;SDS011;35622;52.008;5.426;2022-09-12T21:03:53;8.07;;;5.63;;
49730;SDS011;35622;52.008;5.426;2022-09-12T21:06:19;7.82;;;5.95;;
49730;SDS011;35622;52.008;5.426;2022-09-12T21:08:46;6.60;;;5.60;;